Time;durP1;ratioP1;P1;durP2;ratioP2;P2;SDS_P1;SDS_P2;PMS_P1;PMS_P2;Temp;Humidity;BMP_temperature;BMP_pressure;BME280_temperature;BME280_humidity;BME280_pressure;Samples;Min_cycle;Max_cycle;Signal;HPM_P1;HPM_P2
2021/12/11 00:01:07;;;;;;;13.28;8.95;;;;;;;7.87;83.58;99368.07;1698610;83;21491;-59
2021/12/11 00:03:39;;;;;;;10.68;9.00;;;;;;;7.96;83.41;99373.44;1707562;83;21427;-60
2021/12/11 00:06:11;;;;;;;13.03;9.05;;;;;;;7.99;83.28;99377.27;1704498;82;21519;-59
2021/12/11 00:08:39;;;;;;;10.50;9.43;;;;;;;7.96;83.21;99377.37;1706836;81;21515;-59
2021/12/11 00:11:14;;;;;;;10.72;8.90;;;;;;;7.91;83.35;99377.55;1709668;83;21473;-59
2021/12/11 00:13:41;;;;;;;12.58;9.30;;;;;;;7.89;83.57;99381.11;1713226;82;21077;-60
2021/12/11 00:16:13;;;;;;;15.18;9.15;;;;;;;7.99;83.58;99378.58;1701182;83;21789;-59
2021/12/11 00:18:41;;;;;;;10.18;9.13;;;;;;;7.96;83.40;99368.20;1710712;81;21475;-59
2021/12/11 00:21:15;;;;;;;11.10;9.78;;;;;;;7.90;83.63;99378.91;1702357;83;21471;-59
2021/12/11 00:25:05;;;;;;;10.15;8.83;;;;;;;7.92;83.79;99376.63;1796825;79;22611;-62
2021/12/11 00:27:33;;;;;;;11.78;8.55;;;;;;;7.89;83.85;99383.30;1771061;80;21550;-59
2021/12/11 00:29:59;;;;;;;10.93;9.05;;;;;;;7.97;83.82;99395.64;1685867;83;21845;-59
2021/12/11 00:32:30;;;;;;;13.40;8.95;;;;;;;7.99;83.73;99389.05;1730876;81;21564;-59
2021/12/11 00:35:08;;;;;;;13.30;9.05;;;;;;;7.95;83.85;99383.06;1699978;83;21590;-60
2021/12/11 00:37:35;;;;;;;13.55;9.80;;;;;;;7.88;84.10;99380.27;1700517;83;21443;-61
2021/12/11 00:40:11;;;;;;;10.88;9.80;;;;;;;7.87;84.35;99381.16;1694330;82;21628;-59
2021/12/11 00:42:38;;;;;;;10.03;8.80;;;;;;;7.90;84.65;99384.98;1703739;82;21802;-61
2021/12/11 00:45:13;;;;;;;10.10;9.13;;;;;;;7.92;84.64;99380.55;1701845;82;21652;-61
2021/12/11 00:47:51;;;;;;;12.65;10.15;;;;;;;7.91;84.66;99372.31;1713705;82;21593;-61
2021/12/11 00:50:21;;;;;;;12.43;11.03;;;;;;;7.83;85.01;99382.64;1708695;82;21443;-61
2021/12/11 00:52:59;;;;;;;12.23;9.75;;;;;;;7.79;85.18;99394.98;1712005;82;21463;-61
2021/12/11 00:55:29;;;;;;;;;;;;;;;7.76;85.48;99386.80;1719997;82;22134;-60
2021/12/11 00:58:10;;;;;;;14.15;9.55;;;;;;;7.80;85.64;99380.55;1701068;82;20441;-60
2021/12/11 01:00:49;;;;;;;11.85;10.63;;;;;;;7.85;85.64;99378.20;1710889;82;21546;-61
2021/12/11 01:03:19;;;;;;;12.63;10.70;;;;;;;7.85;85.68;99382.13;1678539;82;21486;-59
2021/12/11 01:05:49;;;;;;;12.40;10.68;;;;;;;7.82;85.67;99378.30;1710444;82;21471;-60
2021/12/11 01:08:23;;;;;;;12.43;11.12;;;;;;;7.76;85.79;99382.88;1700186;82;21754;-61
2021/12/11 01:11:01;;;;;;;12.93;10.45;;;;;;;7.71;86.43;99378.71;1702842;82;21296;-61
2021/12/11 01:13:30;;;;;;;12.95;11.12;;;;;;;7.76;86.42;99384.61;1700846;82;21498;-61
2021/12/11 01:16:05;;;;;;;12.40;11.05;;;;;;;7.80;86.35;99387.09;1710645;82;21529;-61
2021/12/11 01:18:36;;;;;;;15.40;12.43;;;;;;;7.82;86.40;99383.11;1708068;82;21528;-61
2021/12/11 01:24:13;;;;;;;14.58;12.78;;;;;;;7.73;86.80;99376.42;1703907;82;21664;-61
2021/12/11 01:26:49;;;;;;;14.38;11.83;;;;;;;7.71;86.94;99380.86;1697823;83;21590;-61
2021/12/11 01:29:19;;;;;;;14.78;11.57;;;;;;;7.75;87.01;99382.45;1755024;80;21435;-60
2021/12/11 01:31:46;;;;;;;16.60;12.45;;;;;;;7.77;87.05;99373.25;1746341;80;21431;-62
2021/12/11 01:34:13;;;;;;;15.03;13.28;;;;;;;7.78;86.94;99381.05;1752374;80;22141;-61
2021/12/11 01:36:41;;;;;;;15.95;13.50;;;;;;;7.75;87.09;99386.38;1747917;80;21542;-60
2021/12/11 01:39:15;;;;;;;15.08;13.48;;;;;;;7.71;87.12;99374.32;1742747;80;21673;-59
2021/12/11 01:41:44;;;;;;;14.40;12.88;;;;;;;7.75;87.25;99381.15;1751949;80;21511;-61
2021/12/11 01:44:15;;;;;;;16.55;13.65;;;;;;;7.79;87.14;99374.89;1753265;80;21065;-60
2021/12/11 01:46:44;;;;;;;16.87;13.90;;;;;;;7.79;86.98;99369.66;1756692;80;21395;-59
2021/12/11 01:49:20;;;;;;;18.05;15.38;;;;;;;7.78;87.03;99373.20;1748379;80;21584;-60
2021/12/11 01:51:56;;;;;;;15.60;14.00;;;;;;;7.72;86.98;99366.89;1757744;80;20974;-61
2021/12/11 01:54:31;;;;;;;20.23;14.55;;;;;;;7.69;87.08;99369.60;1744293;80;21490;-61
2021/12/11 01:57:03;;;;;;;15.03;13.13;;;;;;;7.73;87.04;99371.66;1757230;80;21565;-61
2021/12/11 01:59:33;;;;;;;16.45;14.40;;;;;;;7.75;86.84;99380.30;1739065;80;21580;-63
2021/12/11 02:02:08;;;;;;;16.32;14.68;;;;;;;7.76;86.67;99379.38;1757226;80;21592;-63
2021/12/11 02:04:39;;;;;;;19.12;15.72;;;;;;;7.72;86.61;99379.97;1738468;80;21434;-62
2021/12/11 02:07:11;;;;;;;17.95;14.33;;;;;;;7.66;86.70;99376.23;1738994;80;20959;-62
2021/12/11 02:09:40;;;;;;;15.43;13.53;;;;;;;7.64;86.67;99379.36;1740184;80;21466;-61
2021/12/11 02:12:11;;;;;;;;;;;;;;;7.68;86.72;99380.11;1753944;80;22127;-62
2021/12/11 02:14:43;;;;;;;19.17;14.55;;;;;;;7.69;86.70;99380.06;1741036;81;20447;-61
2021/12/11 02:17:20;;;;;;;19.12;14.40;;;;;;;7.69;86.77;99387.92;1749764;80;21002;-62
2021/12/11 02:19:47;;;;;;;20.20;14.33;;;;;;;7.68;86.68;99398.44;1748233;80;21436;-60
2021/12/11 02:22:18;;;;;;;19.57;15.20;;;;;;;7.62;86.76;99398.19;1753350;80;21116;-60
2021/12/11 02:24:52;;;;;;;20.35;14.23;;;;;;;7.61;87.05;99401.73;1741111;80;21791;-60
2021/12/11 02:27:27;;;;;;;17.25;13.70;;;;;;;7.68;86.95;99402.36;1752628;80;21398;-60
2021/12/11 02:30:20;;;;;;;16.85;14.43;;;;;;;7.70;86.84;99406.62;1763320;80;21518;-61
2021/12/11 02:32:51;;;;;;;16.45;14.70;;;;;;;7.67;86.86;99402.82;1750089;80;21530;-61
2021/12/11 02:35:26;;;;;;;18.50;14.18;;;;;;;7.65;86.87;99402.45;1713915;80;21534;-59
2021/12/11 02:37:58;;;;;;;23.52;14.23;;;;;;;7.61;87.00;99401.73;1755348;80;21491;-61
2021/12/11 02:40:40;;;;;;;17.48;12.60;;;;;;;7.67;87.07;99404.13;1753836;80;21404;-63
2021/12/11 02:46:16;;;;;;;18.27;13.93;;;;;;;7.72;86.85;99396.98;1633064;85;21579;-59
2021/12/11 02:48:53;;;;;;;16.57;13.38;;;;;;;7.67;86.92;99391.05;1634442;86;21508;-60
2021/12/11 02:51:37;;;;;;;14.45;12.13;;;;;;;7.62;87.03;99393.42;1638402;86;21770;-59
2021/12/11 02:54:14;;;;;;;13.58;12.18;;;;;;;7.63;87.18;99388.14;1635155;86;21502;-61
2021/12/11 02:56:49;;;;;;;12.18;10.80;;;;;;;7.69;87.04;99386.61;1635206;86;21554;-60
2021/12/11 02:59:20;;;;;;;15.28;11.80;;;;;;;7.75;86.84;99389.00;1629462;86;21199;-61
2021/12/11 03:01:51;;;;;;;16.70;12.88;;;;;;;7.79;86.52;99385.83;1634254;86;21076;-62
2021/12/11 03:04:32;;;;;;;15.00;11.93;;;;;;;7.75;86.50;99388.16;1634574;86;22108;-61
2021/12/11 03:06:56;;;;;;;17.07;11.85;;;;;;;7.71;86.49;99382.63;1633033;87;21514;-63
2021/12/11 03:09:25;;;;;;;;;;;;;;;7.67;86.56;99377.96;1639350;86;21016;-63
2021/12/11 03:11:54;;;;;;;15.48;10.63;;;;;;;7.67;86.57;99390.20;1629267;86;20416;-61
2021/12/11 03:14:23;;;;;;;14.05;10.08;;;;;;;7.71;86.49;99395.26;1634497;87;21564;-61
2021/12/11 03:16:50;;;;;;;12.10;10.88;;;;;;;7.66;86.39;99376.23;1635713;86;22142;-61
2021/12/11 03:19:20;;;;;;;14.15;11.65;;;;;;;7.68;86.42;99383.58;1634918;87;28844;-62
2021/12/11 03:21:48;;;;;;;17.35;11.83;;;;;;;7.65;86.44;99387.62;1634434;86;21477;-62
2021/12/11 03:24:15;;;;;;;18.05;11.25;;;;;;;7.64;86.49;99383.29;1635039;87;21508;-64
2021/12/11 03:26:45;;;;;;;13.20;10.85;;;;;;;7.68;86.36;99382.27;1635547;86;21560;-64
2021/12/11 03:29:13;;;;;;;13.70;11.50;;;;;;;7.72;86.26;99374.73;1635557;86;22085;-61
2021/12/11 03:31:40;;;;;;;16.48;12.23;;;;;;;7.72;86.12;99376.47;1638462;86;21415;-61
2021/12/11 03:34:11;;;;;;;12.78;11.45;;;;;;;7.67;86.16;99377.96;1638293;85;21489;-63
2021/12/11 03:36:38;;;;;;;15.75;11.20;;;;;;;7.63;86.30;99376.80;1630619;86;21546;-62
2021/12/11 03:39:23;;;;;;;13.22;10.03;;;;;;;7.60;86.51;99371.23;1633276;87;21529;-61
2021/12/11 03:41:53;;;;;;;16.30;10.82;;;;;;;7.63;86.44;99368.95;1634466;86;21597;-62
2021/12/11 03:44:20;;;;;;;15.58;12.50;;;;;;;7.66;86.38;99361.00;1640143;85;21581;-62
2021/12/11 03:46:51;;;;;;;13.93;11.27;;;;;;;7.67;86.24;99349.64;1668957;85;21449;-62
2021/12/11 03:49:19;;;;;;;18.20;12.15;;;;;;;7.62;86.15;99367.25;1672063;84;21498;-62
2021/12/11 03:51:49;;;;;;;17.45;10.95;;;;;;;7.54;86.38;99364.91;1675896;83;21473;-62
2021/12/11 03:54:26;;;;;;;11.65;10.28;;;;;;;7.52;86.57;99366.73;1676974;84;21478;-62
2021/12/11 03:56:53;;;;;;;14.83;11.03;;;;;;;7.57;86.45;99371.32;1669583;83;21689;-61
2021/12/11 03:59:20;;;;;;;16.50;11.85;;;;;;;7.59;86.17;99372.12;1672314;84;21068;-62
2021/12/11 04:01:52;;;;;;;14.95;10.75;;;;;;;7.60;86.00;99365.53;1674257;84;21470;-62
2021/12/11 04:04:37;;;;;;;15.05;11.73;;;;;;;7.56;86.02;99363.94;1671154;84;21008;-62
2021/12/11 04:07:08;;;;;;;14.40;11.10;;;;;;;7.54;86.02;99364.91;1671769;84;21761;-61
2021/12/11 04:09:35;;;;;;;13.83;10.23;;;;;;;7.51;86.00;99362.39;1673105;84;21468;-61
2021/12/11 04:12:03;;;;;;;12.37;10.53;;;;;;;7.55;86.12;99362.25;1659334;85;21575;-60
2021/12/11 04:14:34;;;;;;;12.73;9.85;;;;;;;7.58;86.02;99367.81;1673636;83;21025;-62
2021/12/11 04:17:03;;;;;;;13.35;10.10;;;;;;;7.58;85.86;99354.27;1667175;84;21431;-60
2021/12/11 04:19:31;;;;;;;13.95;10.85;;;;;;;7.54;85.99;99359.67;1668955;84;21462;-61
2021/12/11 04:22:00;;;;;;;12.75;10.98;;;;;;;7.48;86.00;99358.13;1680227;85;21053;-60
2021/12/11 04:24:28;;;;;;;;;;;;;;;7.46;86.24;99362.56;1672370;83;21553;-60
2021/12/11 04:26:57;;;;;;;16.00;11.88;;;;;;;7.50;86.11;99364.16;1673132;85;20514;-60
2021/12/11 04:29:24;;;;;;;14.98;11.63;;;;;;;7.52;86.12;99358.88;1668059;85;21477;-60
2021/12/11 04:31:52;;;;;;;15.70;12.37;;;;;;;7.51;86.02;99356.69;1673289;84;21806;-60
2021/12/11 04:34:19;;;;;;;12.63;11.28;;;;;;;7.48;86.07;99350.28;1677403;84;21410;-59
2021/12/11 04:36:49;;;;;;;;;;;;;;;7.45;86.13;99366.53;1674122;85;21495;-60
2021/12/11 04:39:19;;;;;;;12.30;11.05;;;;;;;7.44;86.30;99372.66;1672277;85;20449;-61
2021/12/11 04:41:58;;;;;;;11.45;10.25;;;;;;;7.46;86.24;99365.61;1673393;84;21437;-61
2021/12/11 04:44:27;;;;;;;12.15;9.80;;;;;;;7.51;86.11;99365.00;1665696;85;22104;-60
2021/12/11 04:46:53;;;;;;;13.13;11.80;;;;;;;7.51;85.99;99364.54;1646687;85;21537;-60
2021/12/11 04:49:31;;;;;;;13.70;12.27;;;;;;;7.45;85.99;99368.69;1643889;86;21458;-60
2021/12/11 04:52:01;;;;;;;13.45;12.07;;;;;;;7.38;86.17;99370.67;1599232;86;21507;-60
2021/12/11 04:54:36;;;;;;;13.05;11.65;;;;;;;7.39;86.37;99371.06;1632731;86;21395;-63
2021/12/11 05:09:40;;;;;;;10.63;9.60;;;;;;;7.39;86.33;99377.59;1644775;85;21653;-60
2021/12/11 05:12:10;;;;;;;11.75;10.55;;;;;;;7.47;86.20;99373.88;1635968;86;21484;-61
2021/12/11 05:14:34;;;;;;;14.63;11.20;;;;;;;7.51;86.00;99368.47;1640449;86;20978;-61
2021/12/11 05:17:01;;;;;;;13.55;11.25;;;;;;;7.50;85.98;99365.92;1644930;86;21565;-61
2021/12/11 05:19:28;;;;;;;13.98;11.63;;;;;;;7.48;86.14;99369.02;1644515;85;21677;-61
2021/12/11 05:21:55;;;;;;;11.48;10.38;;;;;;;7.41;86.36;99368.39;1640133;86;22159;-61
2021/12/11 05:24:22;;;;;;;15.25;11.63;;;;;;;7.41;86.54;99367.94;1645962;86;21066;-60
2021/12/11 05:26:49;;;;;;;15.70;10.30;;;;;;;7.46;86.29;99365.61;1642096;86;21508;-61
2021/12/11 05:29:16;;;;;;;12.03;10.70;;;;;;;7.47;86.40;99369.48;1643301;85;21019;-61
2021/12/11 05:31:43;;;;;;;12.73;10.65;;;;;;;7.47;86.36;99366.02;1643640;85;21498;-60
2021/12/11 05:34:10;;;;;;;13.08;11.35;;;;;;;7.43;86.49;99363.12;1643390;85;21781;-61
2021/12/11 05:36:38;;;;;;;12.20;10.63;;;;;;;7.35;86.86;99362.08;1649301;85;21566;-62
2021/12/11 05:39:09;;;;;;;12.80;10.40;;;;;;;7.39;86.85;99355.83;1643512;86;22194;-61
2021/12/11 05:41:36;;;;;;;12.30;10.50;;;;;;;7.43;86.79;99354.81;1650569;84;21496;-63
2021/12/11 05:44:04;;;;;;;12.50;11.10;;;;;;;7.48;86.65;99358.13;1640275;86;21651;-60
2021/12/11 05:46:31;;;;;;;15.65;11.68;;;;;;;7.48;86.51;99350.28;1652827;86;21777;-60
2021/12/11 05:48:58;;;;;;;15.15;11.43;;;;;;;7.43;86.61;99352.19;1656362;85;21495;-60
2021/12/11 05:51:26;;;;;;;12.50;10.97;;;;;;;7.38;86.72;99353.67;1654737;85;21632;-60
2021/12/11 05:53:56;;;;;;;12.40;10.13;;;;;;;7.37;86.95;99357.64;1662706;85;21673;-60
2021/12/11 05:56:24;;;;;;;11.90;10.10;;;;;;;7.38;87.10;99354.98;1657151;85;21493;-60
2021/12/11 06:01:30;;;;;;;12.50;10.53;;;;;;;7.46;86.78;99368.22;1654849;86;20438;-60
2021/12/11 06:04:04;;;;;;;11.68;10.48;;;;;;;7.43;86.71;99364.42;1655982;84;21490;-60
2021/12/11 06:06:31;;;;;;;11.15;10.10;;;;;;;7.37;86.78;99367.64;1657547;85;21564;-59
2021/12/11 06:08:58;;;;;;;13.80;10.67;;;;;;;7.32;86.95;99365.62;1667018;84;21503;-61
2021/12/11 06:11:26;;;;;;;11.30;10.13;;;;;;;7.38;86.85;99362.83;1655065;86;21732;-62
2021/12/11 06:13:53;;;;;;;12.65;10.38;;;;;;;7.41;86.54;99361.39;1667398;85;21483;-59
2021/12/11 06:16:20;;;;;;;11.15;9.95;;;;;;;7.42;86.36;99364.86;1658054;85;20989;-61
2021/12/11 06:18:47;;;;;;;11.70;10.47;;;;;;;7.40;86.30;99359.70;1655002;85;21462;-61
2021/12/11 06:21:14;;;;;;;11.00;9.90;;;;;;;7.33;86.33;99359.50;1662626;85;21432;-61
2021/12/11 06:23:41;;;;;;;11.28;10.10;;;;;;;7.34;86.50;99364.27;1655210;85;21682;-61
2021/12/11 06:26:08;;;;;;;11.23;9.60;;;;;;;7.37;86.33;99363.72;1654222;85;20991;-61
2021/12/11 06:28:35;;;;;;;15.00;10.17;;;;;;;7.40;85.85;99364.05;1656670;85;21536;-61
2021/12/11 06:31:03;;;;;;;11.43;10.13;;;;;;;7.43;85.64;99369.19;1653850;85;21615;-61
2021/12/11 06:33:32;;;;;;;13.58;10.32;;;;;;;7.39;85.70;99365.83;1663861;85;21439;-60
2021/12/11 06:36:08;;;;;;;11.45;9.85;;;;;;;7.35;85.62;99372.53;1672055;84;21670;-61
2021/12/11 06:38:36;;;;;;;13.65;9.15;;;;;;;7.35;85.56;99368.16;1661780;85;21560;-61
2021/12/11 06:41:04;;;;;;;8.78;8.05;;;;;;;7.37;85.26;99365.48;1655658;85;21545;-60
2021/12/11 06:43:32;;;;;;;13.75;9.53;;;;;;;7.42;85.16;99375.31;1643701;85;21504;-61
2021/12/11 06:45:59;;;;;;;10.58;9.08;;;;;;;7.46;84.84;99376.07;1645623;84;21438;-60
2021/12/11 06:48:26;;;;;;;16.00;10.18;;;;;;;7.43;84.73;99377.50;1649222;85;21787;-61
2021/12/11 06:50:54;;;;;;;10.00;9.00;;;;;;;7.36;84.84;99374.23;1647311;86;21410;-64
2021/12/11 06:53:35;;;;;;;11.40;9.33;;;;;;;7.36;84.90;99378.16;1648547;85;21497;-61
2021/12/11 06:56:02;;;;;;;13.68;9.78;;;;;;;7.41;84.82;99383.63;1649770;86;21482;-61
2021/12/11 06:58:31;;;;;;;11.00;9.95;;;;;;;7.47;84.46;99381.25;1646370;85;21474;-60
2021/12/11 07:00:59;;;;;;;12.15;9.83;;;;;;;7.50;84.24;99389.02;1647744;86;21725;-60
2021/12/11 07:03:26;;;;;;;11.60;10.33;;;;;;;7.47;84.21;99381.72;1646008;85;21412;-62
2021/12/11 07:05:54;;;;;;;10.05;9.05;;;;;;;7.43;84.14;99375.73;1649102;85;21464;-61
2021/12/11 07:08:22;;;;;;;;;;;;;;;7.39;84.42;99374.98;1650627;85;21478;-59
2021/12/11 07:10:49;;;;;;;10.75;9.65;;;;;;;7.45;84.31;99378.30;1647946;86;20428;-61
2021/12/11 07:13:16;;;;;;;13.00;9.83;;;;;;;7.47;84.17;99376.02;1648354;85;21672;-58
2021/12/11 07:15:43;;;;;;;12.37;10.50;;;;;;;7.50;83.99;99382.94;1647782;86;21446;-58
2021/12/11 07:18:12;;;;;;;12.88;10.40;;;;;;;7.47;84.00;99382.56;1641448;85;21479;-58
2021/12/11 07:20:40;;;;;;;13.00;9.85;;;;;;;7.44;84.09;99378.77;1650666;85;21028;-58
2021/12/11 07:23:07;;;;;;;12.60;10.15;;;;;;;7.41;84.28;99375.78;1656069;85;21805;-58
2021/12/11 07:25:40;;;;;;;16.10;9.45;;;;;;;7.51;84.11;99383.31;1658091;84;21490;-59
2021/12/11 07:28:08;;;;;;;11.28;10.13;;;;;;;7.55;83.99;99380.98;1652614;85;21120;-58
2021/12/11 07:30:35;;;;;;;13.38;10.58;;;;;;;7.55;83.79;99384.48;1655360;85;20987;-56
2021/12/11 07:33:04;;;;;;;11.57;10.32;;;;;;;7.51;83.87;99383.31;1646895;85;21514;-59
2021/12/11 07:35:33;;;;;;;13.45;10.32;;;;;;;7.48;83.98;99389.52;1653961;85;21471;-60
2021/12/11 07:38:00;;;;;;;12.90;9.58;;;;;;;7.47;84.00;99387.80;1651505;85;21741;-60
2021/12/11 07:40:31;;;;;;;14.45;9.68;;;;;;;7.51;83.99;99399.02;1656896;85;21468;-61
2021/12/11 07:42:58;;;;;;;12.05;9.58;;;;;;;7.53;83.74;99386.73;1656516;85;21537;-59
2021/12/11 07:45:27;;;;;;;13.55;10.08;;;;;;;7.52;83.59;99381.12;1655172;85;21574;-59
2021/12/11 07:47:54;;;;;;;12.85;11.30;;;;;;;7.51;83.52;99383.31;1694369;83;21463;-59
2021/12/11 07:50:21;;;;;;;14.60;10.50;;;;;;;7.47;83.72;99389.56;1691627;82;21443;-58
2021/12/11 07:52:48;;;;;;;14.05;10.20;;;;;;;7.46;83.67;99382.61;1689455;83;21443;-57
2021/12/11 07:55:15;;;;;;;11.77;10.13;;;;;;;7.52;83.63;99379.34;1690800;83;21466;-57
2021/12/11 07:57:43;;;;;;;13.40;10.58;;;;;;;7.54;83.31;99384.07;1688825;83;21707;-58
2021/12/11 08:00:13;;;;;;;12.03;10.82;;;;;;;7.56;83.10;99387.95;1679252;83;21585;-58
2021/12/11 08:02:44;;;;;;;12.58;11.28;;;;;;;7.49;83.09;99389.05;1682174;83;21769;-58
2021/12/11 08:05:11;;;;;;;12.73;11.20;;;;;;;7.41;83.26;99390.63;1683197;84;21521;-58
2021/12/11 08:07:40;;;;;;;16.48;10.40;;;;;;;7.38;83.46;99385.06;1678809;83;20962;-58
2021/12/11 08:10:11;;;;;;;14.47;9.95;;;;;;;7.43;83.51;99388.81;1683606;84;21392;-58
2021/12/11 08:12:38;;;;;;;12.85;11.35;;;;;;;7.49;83.35;99401.67;1684459;83;21091;-59
2021/12/11 08:15:06;;;;;;;14.83;11.93;;;;;;;7.48;83.23;99395.18;1678868;84;21709;-57
2021/12/11 08:17:33;;;;;;;15.32;12.07;;;;;;;7.43;83.48;99391.89;1678911;84;20979;-58
2021/12/11 08:20:00;;;;;;;13.40;11.48;;;;;;;7.37;83.74;99396.88;1681166;83;21025;-58
2021/12/11 08:22:27;;;;;;;15.58;11.75;;;;;;;7.33;84.15;99392.20;1678305;83;21408;-58
2021/12/11 08:24:54;;;;;;;15.05;10.93;;;;;;;7.38;84.26;99391.60;1680522;83;21454;-58
2021/12/11 08:27:21;;;;;;;21.87;11.47;;;;;;;7.44;84.16;99385.31;1684708;83;21739;-60
2021/12/11 08:29:50;;;;;;;13.85;11.90;;;;;;;7.40;84.04;99387.17;1680282;83;21386;-59
2021/12/11 08:32:17;;;;;;;15.43;12.60;;;;;;;7.35;84.38;99389.53;1683451;83;21482;-58
2021/12/11 08:34:44;;;;;;;16.63;11.43;;;;;;;7.30;84.49;99381.83;1683165;84;21502;-59
2021/12/11 08:37:13;;;;;;;13.95;11.15;;;;;;;7.30;84.91;99378.37;1679405;83;21728;-59
2021/12/11 08:39:41;;;;;;;13.68;10.72;;;;;;;7.32;84.83;99382.63;1683451;84;21781;-58
2021/12/11 08:42:10;;;;;;;13.70;11.43;;;;;;;7.34;85.10;99376.05;1682098;84;21427;-58
2021/12/11 08:44:39;;;;;;;16.73;11.65;;;;;;;7.30;85.14;99383.13;1676328;83;21463;-58
2021/12/11 08:47:10;;;;;;;14.55;11.65;;;;;;;7.23;85.31;99384.70;1674770;83;20977;-59
2021/12/11 08:49:39;;;;;;;12.25;11.05;;;;;;;7.15;85.76;99391.50;1669145;84;21492;-58
2021/12/11 08:52:26;;;;;;;13.22;10.48;;;;;;;7.09;86.53;99387.32;1670775;83;21742;-58
2021/12/11 08:54:54;;;;;;;11.87;10.50;;;;;;;7.10;86.47;99387.73;1669225;84;21439;-61
2021/12/11 08:57:25;;;;;;;12.15;11.00;;;;;;;7.12;86.41;99376.77;1661324;83;22122;-59
2021/12/11 08:59:57;;;;;;;14.13;11.20;;;;;;;7.14;86.38;99376.27;1674059;84;21490;-59
2021/12/11 09:02:44;;;;;;;10.63;9.60;;;;;;;7.10;86.42;99371.17;1667610;83;21482;-59
2021/12/11 09:05:28;;;;;;;11.97;10.30;;;;;;;7.07;86.31;99374.75;1674493;83;21640;-57
2021/12/11 09:08:12;;;;;;;10.45;9.23;;;;;;;7.00;86.57;99375.39;1669616;83;21422;-58
2021/12/11 09:10:46;;;;;;;11.97;10.28;;;;;;;7.04;86.60;99377.92;1677698;83;21417;-58
2021/12/11 09:13:38;;;;;;;14.53;10.35;;;;;;;7.08;86.52;99376.91;1675187;83;21469;-58
2021/12/11 09:16:23;;;;;;;13.22;11.85;;;;;;;7.08;86.16;99372.52;1661259;83;21467;-58
2021/12/11 09:19:07;;;;;;;12.25;10.95;;;;;;;7.00;86.31;99369.31;1665324;84;21851;-58
2021/12/11 09:22:02;;;;;;;13.38;10.90;;;;;;;6.93;86.54;99369.11;1665208;85;21429;-59
2021/12/11 09:24:46;;;;;;;12.58;10.38;;;;;;;6.94;86.61;99367.76;1670869;84;21471;-58
2021/12/11 09:27:37;;;;;;;15.95;10.75;;;;;;;7.00;86.36;99371.47;1669977;84;20989;-60
2021/12/11 09:30:15;;;;;;;15.38;11.30;;;;;;;7.02;86.09;99374.89;1664779;83;20982;-59
2021/12/11 09:32:46;;;;;;;16.52;12.47;;;;;;;6.96;86.28;99369.02;1666322;83;21755;-58
2021/12/11 09:35:24;;;;;;;14.05;10.90;;;;;;;6.86;86.36;99373.69;1672302;85;21437;-60
2021/12/11 09:37:56;;;;;;;14.07;11.18;;;;;;;6.82;86.84;99376.85;1670295;85;21467;-62
2021/12/11 09:40:41;;;;;;;12.15;10.50;;;;;;;6.85;86.80;99376.34;1668878;83;21444;-59
2021/12/11 09:43:09;;;;;;;12.88;11.22;;;;;;;6.85;86.86;99371.97;1634204;86;21495;-59
2021/12/11 09:45:41;;;;;;;14.93;11.30;;;;;;;6.84;86.88;99376.81;1597283;87;21806;-60
2021/12/11 09:48:14;;;;;;;14.03;11.85;;;;;;;6.81;87.06;99375.59;1640355;86;21408;-59
2021/12/11 09:50:50;;;;;;;13.60;11.15;;;;;;;6.77;87.25;99376.59;1647783;85;21417;-60
2021/12/11 09:53:15;;;;;;;13.20;10.90;;;;;;;6.74;87.36;99364.92;1647514;85;21427;-59
2021/12/11 09:55:42;;;;;;;16.27;11.33;;;;;;;6.80;87.15;99363.45;1645799;86;20989;-59
2021/12/11 09:58:13;;;;;;;15.70;11.12;;;;;;;6.82;86.88;99365.09;1648799;85;21755;-59
2021/12/11 10:00:48;;;;;;;15.88;11.75;;;;;;;6.86;86.50;99358.47;1643696;86;21446;-60
2021/12/11 10:03:17;;;;;;;13.48;11.63;;;;;;;6.78;86.46;99363.91;1636606;86;21434;-61
2021/12/11 10:05:55;;;;;;;14.03;10.78;;;;;;;6.72;86.89;99362.35;1642875;85;21442;-58
2021/12/11 10:08:28;;;;;;;13.15;10.85;;;;;;;6.71;86.59;99360.66;1645987;85;21518;-58
2021/12/11 10:11:11;;;;;;;14.18;11.43;;;;;;;6.77;86.40;99368.75;1654583;85;21904;-58
2021/12/11 10:13:54;;;;;;;14.45;11.08;;;;;;;6.81;86.12;99366.44;1587147;87;21449;-58
2021/12/11 10:16:25;;;;;;;12.55;10.95;;;;;;;6.83;85.80;99370.70;1642634;86;21504;-58
2021/12/11 10:18:52;;;;;;;14.25;12.55;;;;;;;6.78;85.51;99367.41;1647931;85;21580;-58
2021/12/11 10:21:30;;;;;;;19.45;11.28;;;;;;;6.71;85.53;99372.42;1645384;85;21522;-60
2021/12/11 10:23:59;;;;;;;;;;;;;;;6.67;85.68;99373.84;1649755;85;21737;-59
2021/12/11 10:26:26;;;;;;;16.10;11.05;;;;;;;6.72;85.64;99378.03;1646586;86;20446;-60
2021/12/11 10:28:57;;;;;;;13.87;10.77;;;;;;;6.69;85.67;99374.69;1647955;85;21541;-60
2021/12/11 10:31:28;;;;;;;13.22;10.88;;;;;;;6.71;85.82;99378.95;1642704;85;21061;-59
2021/12/11 10:33:56;;;;;;;13.10;10.68;;;;;;;6.71;86.01;99377.64;1650519;85;21493;-59
2021/12/11 10:36:26;;;;;;;12.80;10.30;;;;;;;6.63;86.68;99382.27;1653505;84;21741;-58
2021/12/11 10:38:55;;;;;;;13.00;10.10;;;;;;;6.59;87.12;99374.09;1650014;85;21572;-59
2021/12/11 10:41:25;;;;;;;12.78;10.03;;;;;;;6.65;87.02;99375.23;1646610;85;21591;-59
2021/12/11 10:43:59;;;;;;;11.40;10.05;;;;;;;6.67;87.33;99370.81;1645760;86;21577;-59
2021/12/11 10:46:30;;;;;;;15.48;10.00;;;;;;;6.70;87.09;99375.07;1646169;86;21513;-58
2021/12/11 10:48:57;;;;;;;14.30;10.68;;;;;;;6.69;87.05;99377.30;1614339;87;21793;-59
2021/12/11 10:51:31;;;;;;;12.23;9.60;;;;;;;6.63;87.12;99377.88;1606718;87;21537;-60
2021/12/11 10:53:58;;;;;;;10.35;9.33;;;;;;;6.61;87.32;99376.20;1591294;89;21474;-59
2021/12/11 10:56:26;;;;;;;13.17;9.17;;;;;;;6.59;87.48;99378.88;1614484;87;21569;-60
2021/12/11 10:59:00;;;;;;;10.48;9.35;;;;;;;6.60;87.40;99375.81;1651571;85;21467;-60
2021/12/11 11:01:41;;;;;;;10.90;8.53;;;;;;;6.60;87.42;99373.20;1648132;85;21485;-60
2021/12/11 11:04:13;;;;;;;11.45;8.93;;;;;;;6.56;87.69;99377.66;1614327;87;21475;-60
2021/12/11 11:06:40;;;;;;;11.12;8.98;;;;;;;6.51;88.02;99370.41;1592198;88;20983;-58
2021/12/11 11:09:08;;;;;;;10.53;9.20;;;;;;;6.51;88.31;99374.78;1591901;88;21514;-59
2021/12/11 11:11:36;;;;;;;7.80;7.03;;;;;;;6.56;88.50;99375.05;1591509;88;21495;-59
2021/12/11 11:14:05;;;;;;;9.35;6.83;;;;;;;6.60;88.04;99375.81;1590977;89;21740;-61
2021/12/11 11:16:32;;;;;;;8.45;6.60;;;;;;;6.60;87.70;99372.74;1589397;88;20990;-58
2021/12/11 11:18:59;;;;;;;8.60;6.57;;;;;;;6.58;87.75;99378.92;1645268;86;21518;-58
2021/12/11 11:21:36;;;;;;;7.53;6.72;;;;;;;6.52;87.95;99371.28;1648654;85;22333;-59
2021/12/11 11:24:04;;;;;;;9.48;6.05;;;;;;;6.46;88.07;99367.11;1653159;85;21464;-58
2021/12/11 11:26:34;;;;;;;7.22;5.90;;;;;;;6.46;88.24;99373.63;1657132;84;21679;-58
2021/12/11 11:29:03;;;;;;;6.90;6.15;;;;;;;6.49;88.22;99366.14;1658549;85;21471;-58
2021/12/11 11:31:34;;;;;;;8.73;7.35;;;;;;;6.47;88.06;99374.48;1653598;85;21574;-60
2021/12/11 11:37:37;;;;;;;9.60;7.85;;;;;;;6.39;88.69;99371.64;1790332;78;22992;-56
2021/12/11 11:40:09;;;;;;;12.37;7.58;;;;;;;6.37;88.96;99383.05;1758439;80;21576;-58
2021/12/11 11:42:37;;;;;;;11.78;7.67;;;;;;;6.41;88.96;99376.83;1759650;80;21770;-59
2021/12/11 11:45:06;;;;;;;8.73;7.85;;;;;;;6.47;88.89;99383.63;1750820;80;21593;-59
2021/12/11 11:47:32;;;;;;;11.35;8.75;;;;;;;6.52;88.75;99387.80;1759402;80;21485;-60
2021/12/11 11:50:02;;;;;;;12.63;10.00;;;;;;;6.51;88.75;99394.38;1759975;80;21525;-60
2021/12/11 11:52:30;;;;;;;11.93;8.98;;;;;;;6.48;88.88;99401.86;1756111;80;21574;-60
2021/12/11 11:55:00;;;;;;;9.38;7.65;;;;;;;6.49;88.94;99390.95;1755877;80;22540;-60
2021/12/11 11:57:32;;;;;;;6.97;6.33;;;;;;;6.54;88.82;99389.07;1762370;80;21146;-60
2021/12/11 11:59:59;;;;;;;9.03;7.05;;;;;;;6.58;88.74;99394.14;1759734;80;21553;-59
2021/12/11 12:02:28;;;;;;;9.20;7.37;;;;;;;6.61;88.91;99397.09;1758069;80;21438;-60
2021/12/11 12:04:57;;;;;;;10.68;8.10;;;;;;;6.60;88.78;99397.56;1758422;80;21509;-60
2021/12/11 12:07:28;;;;;;;14.85;10.03;;;;;;;6.59;88.78;99408.05;1758459;80;21798;-59
2021/12/11 12:10:02;;;;;;;11.28;8.83;;;;;;;6.58;88.88;99416.34;1758771;80;21542;-59
2021/12/11 12:12:30;;;;;;;14.95;9.68;;;;;;;6.65;88.68;99410.92;1752840;80;21072;-59